createdAt,value
2018-07-02T00:00:20.542Z,61.54
2018-07-02T00:01:28.612Z,61.25
2018-07-02T00:02:36.662Z,60.26
2018-07-02T00:03:44.730Z,59.88
2018-07-02T00:04:52.808Z,60.64
2018-07-02T00:06:00.867Z,60.55
2018-07-02T00:07:08.933Z,60.06
2018-07-02T00:08:16.970Z,60.06
2018-07-02T00:09:25.073Z,60.83
2018-07-02T00:10:33.144Z,61.69
2018-07-02T00:11:41.191Z,60.64
2018-07-02T00:12:49.274Z,59.78
2018-07-02T00:13:57.299Z,60.16
2018-07-02T00:15:05.391Z,60.35
2018-07-02T00:16:13.467Z,61.22
2018-07-02T00:17:21.522Z,61.41
2018-07-02T00:18:29.588Z,60.26
2018-07-02T00:19:37.677Z,60.74
2018-07-02T00:20:45.749Z,61.22
2018-07-02T00:21:53.796Z,61.22
2018-07-02T00:23:01.867Z,61.02
2018-07-02T00:24:09.933Z,60.55
2018-07-02T00:25:18.008Z,60.16
2018-07-02T00:26:26.076Z,60.16
2018-07-02T00:27:34.141Z,60.93
2018-07-02T00:28:42.204Z,59.97
2018-07-02T00:29:50.277Z,59.88
2018-07-02T00:30:58.348Z,60.74
2018-07-02T00:32:06.413Z,60.35
2018-07-02T00:33:14.483Z,60.45
2018-07-02T00:34:22.542Z,61.02
2018-07-02T00:35:30.602Z,59.78
2018-07-02T00:36:38.665Z,60.45
2018-07-02T00:37:49.313Z,61.31
2018-07-02T00:38:54.801Z,61.51
2018-07-02T00:40:02.886Z,61.69
2018-07-02T00:41:10.948Z,61.88
2018-07-02T00:42:19.002Z,61.02
2018-07-02T00:43:27.039Z,61.41
2018-07-02T00:44:35.137Z,60.55
2018-07-02T00:45:43.202Z,60.06
2018-07-02T00:46:51.263Z,61.31
2018-07-02T00:47:59.332Z,61.51
2018-07-02T00:49:07.363Z,61.51
2018-07-02T00:50:15.452Z,60.74
2018-07-02T00:51:23.529Z,61.60
2018-07-02T00:52:31.578Z,60.83
2018-07-02T00:53:39.651Z,60.64
2018-07-02T00:54:47.703Z,61.79
2018-07-02T00:55:55.775Z,60.64
2018-07-02T00:57:03.853Z,60.55
2018-07-02T00:58:11.935Z,61.51
2018-07-02T00:59:19.992Z,61.02
2018-07-02T01:00:28.052Z,60.45
2018-07-02T01:01:36.120Z,60.64
2018-07-02T01:02:44.188Z,61.41
2018-07-02T01:03:52.246Z,61.12
2018-07-02T01:05:00.316Z,61.88
2018-07-02T01:06:08.364Z,61.60
2018-07-02T01:07:16.441Z,61.60
2018-07-02T01:08:24.504Z,61.76
2018-07-02T01:09:32.583Z,60.71
2018-07-02T01:10:40.652Z,61.57
2018-07-02T01:11:48.725Z,60.42
2018-07-02T01:12:56.773Z,61.19
2018-07-02T01:14:04.846Z,61.66
2018-07-02T01:15:12.909Z,61.19
2018-07-02T01:16:20.984Z,61.66
2018-07-02T01:17:29.047Z,62.52
2018-07-02T01:18:37.083Z,61.66
2018-07-02T01:19:45.177Z,61.19
2018-07-02T01:20:53.245Z,62.33
2018-07-02T01:22:01.315Z,62.52
2018-07-02T01:23:09.386Z,62.71
2018-07-02T01:24:18.031Z,62.71
2018-07-02T01:25:25.504Z,63.00
2018-07-02T01:26:33.576Z,62.33
2018-07-02T01:27:41.639Z,62.33
2018-07-02T01:28:49.698Z,62.33
2018-07-02T01:29:57.761Z,63.19
2018-07-02T01:31:05.834Z,62.71
2018-07-02T01:32:13.899Z,62.43
2018-07-02T01:33:21.968Z,62.71
2018-07-02T01:34:30.067Z,63.86
2018-07-02T01:35:38.103Z,62.24
2018-07-02T01:36:46.173Z,63.00
2018-07-02T01:37:54.237Z,63.86
2018-07-02T01:39:02.305Z,63.19
2018-07-02T01:40:10.366Z,63.76
2018-07-02T01:41:18.428Z,64.62
2018-07-02T01:42:26.499Z,63.39
2018-07-02T01:43:34.558Z,63.39
2018-07-02T01:44:42.640Z,63.19
2018-07-02T01:45:50.697Z,63.96
2018-07-02T01:46:58.770Z,64.15
2018-07-02T01:48:06.803Z,63.10
2018-07-02T01:49:14.895Z,63.00
2018-07-02T01:50:22.961Z,63.96
2018-07-02T01:51:31.043Z,63.29
2018-07-02T01:52:39.213Z,63.76
2018-07-02T01:53:47.135Z,63.29
2018-07-02T01:54:55.224Z,63.19
2018-07-02T01:56:03.300Z,63.19
2018-07-02T01:57:11.373Z,63.67
2018-07-02T01:58:19.440Z,63.26
2018-07-02T01:59:27.492Z,63.19
2018-07-02T02:00:36.207Z,63.96
2018-07-02T02:01:43.625Z,63.57
2018-07-02T02:02:51.697Z,63.35
2018-07-02T02:03:59.771Z,64.05
2018-07-02T02:05:07.824Z,64.12
2018-07-02T02:06:15.909Z,64.22
2018-07-02T02:07:23.965Z,64.31
2018-07-02T02:08:32.025Z,63.93
2018-07-02T02:09:40.103Z,63.73
2018-07-02T02:10:48.175Z,64.12
2018-07-02T02:11:56.233Z,64.31
2018-07-02T02:13:04.326Z,63.64
2018-07-02T02:14:12.355Z,63.73
2018-07-02T02:15:20.408Z,63.35
2018-07-02T02:16:28.480Z,63.54
2018-07-02T02:17:36.561Z,64.40
2018-07-02T02:18:44.622Z,63.73
2018-07-02T02:19:52.692Z,63.83
2018-07-02T02:21:00.759Z,63.93
2018-07-02T02:22:08.820Z,64.40
2018-07-02T02:23:16.866Z,64.12
2018-07-02T02:24:24.960Z,64.88
2018-07-02T02:25:33.008Z,64.31
2018-07-02T02:26:41.086Z,64.02
2018-07-02T02:27:49.136Z,63.64
2018-07-02T02:28:57.211Z,63.73
2018-07-02T02:30:05.285Z,64.59
2018-07-02T02:31:13.339Z,63.83
2018-07-02T02:32:21.409Z,63.54
2018-07-02T02:33:29.492Z,64.12
2018-07-02T02:34:37.528Z,63.73
2018-07-02T02:35:45.606Z,64.02
2018-07-02T02:36:53.680Z,64.40
2018-07-02T02:38:01.760Z,64.50
2018-07-02T02:39:09.803Z,65.17
2018-07-02T02:40:17.866Z,64.59
2018-07-02T02:41:25.955Z,64.12
2018-07-02T02:42:34.012Z,64.69
2018-07-02T02:43:42.079Z,65.17
2018-07-02T02:44:50.145Z,64.88
2018-07-02T02:45:58.207Z,65.07
2018-07-02T02:47:06.282Z,64.69
2018-07-02T02:48:14.377Z,64.69
2018-07-02T02:49:22.412Z,65.17
2018-07-02T02:50:30.495Z,65.84
2018-07-02T02:51:38.563Z,65.17
2018-07-02T02:52:46.610Z,66.03
2018-07-02T02:53:54.678Z,65.26
2018-07-02T02:55:02.756Z,65.74
2018-07-02T02:56:10.814Z,65.80
2018-07-02T02:57:18.884Z,66.03
2018-07-02T02:58:26.924Z,65.14
2018-07-02T02:59:35.014Z,65.26
2018-07-02T03:00:43.089Z,65.26
2018-07-02T03:01:51.157Z,65.84
2018-07-02T03:02:59.222Z,65.80
2018-07-02T03:04:07.260Z,65.84
2018-07-02T03:05:15.345Z,66.03
2018-07-02T03:06:23.417Z,66.47
2018-07-02T03:07:31.475Z,66.66
2018-07-02T03:08:39.541Z,66.03
2018-07-02T03:09:47.657Z,66.50
2018-07-02T03:10:55.680Z,66.85
2018-07-02T03:12:03.746Z,66.76
2018-07-02T03:13:11.801Z,66.66
2018-07-02T03:14:19.878Z,67.05
2018-07-02T03:15:27.931Z,66.28
2018-07-02T03:16:35.997Z,67.33
2018-07-02T03:17:44.063Z,67.24
2018-07-02T03:18:52.145Z,66.76
2018-07-02T03:20:00.211Z,66.47
2018-07-02T03:21:08.267Z,66.66
2018-07-02T03:22:16.346Z,66.38
2018-07-02T03:23:24.415Z,66.47
2018-07-02T03:24:32.468Z,66.28
2018-07-02T03:25:40.526Z,66.38
2018-07-02T03:26:48.596Z,66.76
2018-07-02T03:27:56.679Z,66.66
2018-07-02T03:29:04.734Z,66.38
2018-07-02T03:30:12.801Z,66.66
2018-07-02T03:31:20.872Z,66.95
2018-07-02T03:32:28.951Z,66.85
2018-07-02T03:33:36.985Z,67.05
2018-07-02T03:34:45.077Z,66.19
2018-07-02T03:35:53.140Z,67.43
2018-07-02T03:37:01.212Z,66.85
2018-07-02T03:38:09.262Z,67.05
2018-07-02T03:39:17.303Z,67.43
2018-07-02T03:40:25.431Z,67.52
2018-07-02T03:41:33.469Z,66.76
2018-07-02T03:42:41.534Z,66.85
2018-07-02T03:43:49.601Z,66.66
2018-07-02T03:44:57.644Z,66.85
2018-07-02T03:46:05.731Z,66.76
2018-07-02T03:47:13.790Z,67.05
2018-07-02T03:48:21.856Z,66.95
2018-07-02T03:49:29.954Z,67.52
2018-07-02T03:50:38.010Z,67.71
2018-07-02T03:51:46.065Z,66.95
2018-07-02T03:52:54.129Z,66.66
2018-07-02T03:54:03.256Z,67.81
2018-07-02T03:55:10.279Z,67.05
2018-07-02T03:56:18.320Z,67.33
2018-07-02T03:57:26.397Z,67.71
2018-07-02T03:58:34.468Z,66.76
2018-07-02T03:59:42.584Z,67.05
2018-07-02T04:00:52.937Z,66.66
2018-07-02T04:02:00.669Z,67.14
2018-07-02T04:03:08.734Z,67.71
2018-07-02T04:04:16.787Z,67.18
2018-07-02T04:05:24.855Z,67.05
2018-07-02T04:06:33.031Z,67.08
2018-07-02T04:07:41.008Z,67.94
2018-07-02T04:08:49.066Z,67.62
2018-07-02T04:09:57.113Z,67.43
2018-07-02T04:11:05.193Z,66.79
2018-07-02T04:12:13.345Z,67.05
2018-07-02T04:13:21.313Z,67.24
2018-07-02T04:14:29.385Z,67.52
2018-07-02T04:15:37.422Z,67.05
2018-07-02T04:16:45.526Z,66.85
2018-07-02T04:17:53.599Z,67.05
2018-07-02T04:19:01.646Z,66.89
2018-07-02T04:20:10.563Z,67.36
2018-07-02T04:21:17.773Z,66.99
2018-07-02T04:22:25.844Z,67.55
2018-07-02T04:23:33.916Z,66.70
2018-07-02T04:24:42.559Z,67.84
2018-07-02T04:25:50.084Z,68.80
2018-07-02T04:26:58.096Z,67.36
2018-07-02T04:28:06.182Z,67.46
2018-07-02T04:29:14.248Z,67.18
2018-07-02T04:30:22.308Z,67.18
2018-07-02T04:31:30.378Z,67.08
2018-07-02T04:32:38.442Z,66.79
2018-07-02T04:33:46.514Z,67.55
2018-07-02T04:34:54.571Z,67.75
2018-07-02T04:36:02.636Z,67.84
2018-07-02T04:37:10.693Z,67.18
2018-07-02T04:38:18.768Z,67.46
2018-07-02T04:39:26.813Z,68.32
2018-07-02T04:40:34.899Z,67.08
2018-07-02T04:41:42.984Z,67.84
2018-07-02T04:42:51.039Z,67.27
2018-07-02T04:43:59.090Z,66.89
2018-07-02T04:45:07.168Z,66.60
2018-07-02T04:46:15.237Z,67.08
2018-07-02T04:47:24.036Z,67.46
2018-07-02T04:48:32.039Z,67.94
2018-07-02T04:49:39.435Z,66.79
2018-07-02T04:50:47.484Z,66.31
2018-07-02T04:51:55.567Z,66.03
2018-07-02T04:53:06.055Z,66.60
2018-07-02T04:54:14.717Z,66.60
2018-07-02T04:55:22.792Z,66.83
2018-07-02T04:56:30.852Z,66.06
2018-07-02T04:57:38.925Z,66.25
2018-07-02T04:58:46.994Z,66.35
2018-07-02T04:59:55.061Z,66.83
2018-07-02T05:01:03.121Z,66.63
2018-07-02T05:02:11.185Z,66.44
2018-07-02T05:03:19.257Z,66.63
2018-07-02T05:04:27.293Z,67.11
2018-07-02T05:05:35.367Z,66.54
2018-07-02T05:06:43.445Z,66.25
2018-07-02T05:07:51.631Z,66.25
2018-07-02T05:08:59.593Z,66.83
2018-07-02T05:10:07.626Z,65.68
2018-07-02T05:11:15.721Z,64.18
2018-07-02T05:12:23.791Z,61.72
2018-07-02T05:13:31.859Z,61.82
2018-07-02T05:14:39.904Z,62.68
2018-07-02T05:15:47.979Z,63.64
2018-07-02T05:16:56.051Z,64.18
2018-07-02T05:18:04.112Z,64.37
2018-07-02T05:19:12.178Z,64.95
2018-07-02T05:20:20.232Z,65.23
2018-07-02T05:21:28.301Z,65.23
2018-07-02T05:22:36.374Z,64.85
2018-07-02T05:23:44.446Z,64.56
2018-07-02T05:24:52.518Z,64.37
2018-07-02T05:26:00.577Z,65.42
2018-07-02T05:27:08.638Z,64.95
2018-07-02T05:28:16.699Z,65.42
2018-07-02T05:29:24.771Z,64.75
2018-07-02T05:30:32.846Z,65.61
2018-07-02T05:31:40.907Z,65.90
2018-07-02T05:32:48.978Z,65.42
2018-07-02T05:33:57.252Z,65.23
2018-07-02T05:35:05.108Z,64.75
2018-07-02T05:36:13.179Z,64.95
2018-07-02T05:37:21.247Z,64.66
2018-07-02T05:38:29.294Z,64.18
2018-07-02T05:39:37.360Z,64.28
2018-07-02T05:40:45.445Z,64.75
2018-07-02T05:41:53.499Z,64.09
2018-07-02T05:43:01.579Z,64.28
2018-07-02T05:44:09.647Z,64.56
2018-07-02T05:45:17.690Z,64.85
2018-07-02T05:46:25.804Z,64.85
2018-07-02T05:47:33.824Z,65.08
2018-07-02T05:48:42.013Z,64.31
2018-07-02T05:49:49.982Z,64.50
2018-07-02T05:50:58.057Z,65.17
2018-07-02T05:52:06.114Z,65.26
2018-07-02T05:53:14.168Z,64.50
2018-07-02T05:54:22.237Z,65.26
2018-07-02T05:55:30.308Z,64.31
2018-07-02T05:56:38.383Z,64.98
2018-07-02T05:57:46.450Z,65.08
2018-07-02T05:58:54.506Z,63.73
2018-07-02T06:00:02.591Z,64.31
2018-07-02T06:01:10.659Z,64.43
2018-07-02T06:02:18.709Z,63.76
2018-07-02T06:03:26.768Z,63.35
2018-07-02T06:04:34.845Z,63.83
2018-07-02T06:05:42.917Z,63.64
2018-07-02T06:06:50.976Z,64.12
2018-07-02T06:07:59.123Z,65.01
2018-07-02T06:09:07.188Z,64.34
2018-07-02T06:10:15.189Z,63.86
2018-07-02T06:11:23.266Z,64.15
2018-07-02T06:12:31.307Z,63.57
2018-07-02T06:13:39.393Z,63.76
2018-07-02T06:14:47.427Z,62.52
2018-07-02T06:15:55.520Z,64.05
2018-07-02T06:17:03.589Z,64.53
2018-07-02T06:18:11.659Z,63.29
2018-07-02T06:19:20.920Z,63.70
2018-07-02T06:20:28.115Z,64.66
2018-07-02T06:21:36.444Z,62.55
2018-07-02T06:22:44.446Z,62.65
2018-07-02T06:23:52.587Z,63.22
2018-07-02T06:25:00.067Z,62.65
2018-07-02T06:26:08.127Z,61.88
2018-07-02T06:27:16.215Z,62.36
2018-07-02T06:29:33.191Z,62.65
2018-07-02T06:30:40.433Z,62.74
2018-07-02T06:31:48.582Z,63.60
2018-07-02T06:32:56.603Z,64.28
2018-07-02T06:34:04.662Z,63.45
2018-07-02T06:35:12.686Z,60.67
2018-07-02T06:36:20.778Z,62.10
2018-07-02T06:37:28.848Z,60.96
2018-07-02T06:38:36.896Z,61.24
2018-07-02T06:39:44.975Z,60.09
2018-07-02T06:40:53.032Z,60.67
2018-07-02T06:42:01.148Z,60.57
2018-07-02T06:43:09.163Z,60.76
2018-07-02T06:44:17.252Z,60.57
2018-07-02T06:45:25.318Z,61.05
2018-07-02T06:46:33.390Z,61.82
2018-07-02T06:47:41.459Z,61.08
2018-07-02T06:48:49.524Z,61.18
2018-07-02T06:49:57.597Z,59.36
2018-07-02T06:51:05.647Z,60.12
2018-07-02T06:52:13.718Z,60.41
2018-07-02T06:53:21.774Z,60.22
2018-07-02T06:54:29.868Z,61.46
2018-07-02T06:55:37.934Z,59.36
2018-07-02T06:56:46.004Z,58.69
2018-07-02T06:57:54.063Z,58.01
2018-07-02T06:59:02.158Z,57.85
2018-07-02T07:00:10.208Z,57.85
2018-07-02T07:01:18.306Z,57.65
2018-07-02T07:02:26.348Z,58.14
2018-07-02T07:03:34.418Z,58.14
2018-07-02T07:04:42.456Z,58.71
2018-07-02T07:05:50.541Z,58.26
2018-07-02T07:06:58.630Z,57.21
2018-07-02T07:08:06.692Z,56.15
2018-07-02T07:09:14.754Z,55.69
2018-07-02T07:10:22.813Z,55.99
2018-07-02T07:11:30.905Z,56.18
2018-07-02T07:12:38.954Z,54.38
2018-07-02T07:13:47.035Z,55.34
2018-07-02T07:14:55.104Z,53.80
2018-07-02T07:16:03.782Z,53.25
2018-07-02T07:17:11.241Z,52.42
2018-07-02T07:18:19.311Z,51.07
2018-07-02T07:19:27.386Z,51.09
2018-07-02T07:20:35.455Z,51.89
2018-07-02T07:21:43.524Z,51.21
2018-07-02T07:22:51.585Z,49.51
2018-07-02T07:23:59.665Z,48.76
2018-07-02T07:25:07.754Z,47.41
2018-07-02T07:26:15.826Z,46.95
2018-07-02T07:27:23.882Z,47.99
2018-07-02T07:28:31.935Z,48.18
2018-07-02T07:29:40.034Z,50.01
2018-07-02T07:30:48.120Z,46.47
2018-07-02T07:31:56.181Z,46.11
2018-07-02T07:33:04.255Z,46.30
2018-07-02T07:34:12.312Z,46.03
2018-07-02T07:35:20.426Z,45.84
2018-07-02T07:36:28.484Z,45.65
2018-07-02T07:37:36.564Z,43.57
2018-07-02T07:38:44.642Z,42.91
2018-07-02T07:39:52.702Z,40.44
2018-07-02T07:41:00.785Z,39.88
2018-07-02T07:42:08.861Z,38.06
2018-07-02T07:43:16.952Z,38.45
2018-07-02T07:44:25.012Z,37.69
2018-07-02T07:46:47.030Z,36.91
2018-07-02T07:47:55.110Z,38.66
2018-07-02T07:49:03.183Z,37.71
2018-07-02T07:50:11.269Z,35.77
2018-07-02T07:51:21.940Z,35.59
2018-07-02T07:52:49.294Z,37.16
2018-07-02T07:53:38.117Z,34.44
2018-07-02T07:54:46.187Z,34.46
2018-07-02T07:55:56.300Z,33.98
2018-07-02T07:57:07.075Z,35.41
2018-07-02T07:58:11.031Z,34.53
2018-07-02T07:59:19.160Z,37.45
2018-07-02T08:00:27.189Z,37.16
2018-07-02T08:01:35.273Z,34.95
2018-07-02T08:02:43.346Z,33.62
2018-07-02T08:03:51.422Z,34.20
2018-07-02T08:04:59.539Z,34.01
2018-07-02T08:06:07.593Z,33.44
2018-07-02T08:07:15.675Z,31.87
2018-07-02T08:08:23.759Z,33.70
2018-07-02T08:09:31.818Z,32.26
2018-07-02T08:10:39.913Z,33.72
2018-07-02T08:11:48.017Z,33.83
2018-07-02T08:12:56.081Z,31.70
2018-07-02T08:14:04.169Z,32.54
2018-07-02T08:15:12.226Z,34.50
2018-07-02T08:16:20.319Z,32.84
2018-07-02T08:17:28.411Z,32.34
2018-07-02T08:18:36.507Z,33.14
2018-07-02T08:19:44.572Z,33.34
2018-07-02T08:20:52.630Z,33.15
2018-07-02T08:22:00.743Z,34.12
2018-07-02T08:23:08.818Z,32.49
2018-07-02T08:24:16.894Z,30.75
2018-07-02T08:25:24.984Z,31.51
2018-07-02T08:26:33.088Z,32.37
2018-07-02T08:27:41.128Z,32.07
2018-07-02T08:28:49.228Z,33.43
2018-07-02T08:29:57.310Z,31.50
2018-07-02T08:31:05.400Z,34.80
2018-07-02T08:32:13.487Z,35.78
2018-07-02T08:33:21.572Z,35.50
2018-07-02T08:34:29.639Z,34.43
2018-07-02T08:35:37.719Z,30.07
2018-07-02T08:36:45.790Z,33.39
2018-07-02T08:37:53.871Z,32.92
2018-07-02T08:39:01.949Z,30.10
2018-07-02T08:40:10.048Z,30.75
2018-07-02T08:41:18.142Z,33.09
2018-07-02T08:42:26.213Z,33.86
2018-07-02T08:43:34.327Z,33.38
2018-07-02T08:44:42.355Z,33.29
2018-07-02T08:45:50.459Z,33.22
2018-07-02T08:46:58.555Z,33.33
2018-07-02T08:48:06.644Z,29.14
2018-07-02T08:49:14.729Z,32.65
2018-07-02T08:50:22.802Z,28.93
2018-07-02T08:51:30.892Z,30.10
2018-07-02T08:52:39.018Z,32.81
2018-07-02T08:53:47.049Z,29.99
2018-07-02T08:54:55.133Z,30.57
2018-07-02T08:56:03.257Z,33.49
2018-07-02T08:57:11.291Z,30.87
2018-07-02T08:58:19.456Z,29.02
2018-07-02T08:59:27.461Z,29.29
2018-07-02T09:00:35.555Z,31.70
2018-07-02T09:01:43.645Z,31.38
2018-07-02T09:02:51.708Z,32.54
2018-07-02T09:03:59.815Z,33.41
2018-07-02T09:05:07.889Z,33.41
2018-07-02T09:06:15.977Z,32.07
2018-07-02T09:07:24.052Z,31.60
2018-07-02T09:08:32.126Z,32.26
2018-07-02T09:09:40.224Z,32.64
2018-07-02T09:10:48.295Z,33.31
2018-07-02T09:11:56.388Z,37.01
2018-07-02T09:13:04.474Z,33.41
2018-07-02T09:14:12.531Z,33.33
2018-07-02T09:15:20.634Z,32.65
2018-07-02T09:16:28.721Z,33.34
2018-07-02T09:17:36.825Z,33.46
2018-07-02T09:18:44.930Z,33.07
2018-07-02T09:19:53.044Z,31.43
2018-07-02T09:21:01.064Z,31.03
2018-07-02T09:22:09.146Z,31.79
2018-07-02T09:23:17.229Z,33.83
2018-07-02T09:24:25.307Z,33.53
2018-07-02T09:25:33.411Z,34.58
2018-07-02T09:26:41.467Z,36.32
2018-07-02T09:27:49.545Z,34.28
2018-07-02T09:28:57.636Z,33.96
2018-07-02T09:30:05.719Z,36.93
2018-07-02T09:31:13.807Z,36.62
2018-07-02T09:32:21.945Z,37.57
2018-07-02T09:33:29.964Z,39.41
2018-07-02T09:34:38.035Z,43.29
2018-07-02T09:35:46.127Z,43.68
2018-07-02T09:36:54.212Z,44.64
2018-07-02T09:38:02.256Z,44.86
2018-07-02T09:39:10.401Z,43.91
2018-07-02T09:40:18.443Z,42.55
2018-07-02T09:41:26.518Z,38.48
2018-07-02T09:42:34.597Z,37.61
2018-07-02T09:43:42.668Z,40.23
2018-07-02T09:44:50.756Z,40.89
2018-07-02T09:45:58.825Z,39.32
2018-07-02T09:47:06.913Z,40.07
2018-07-02T09:48:14.983Z,40.46
2018-07-02T09:49:23.068Z,41.21
2018-07-02T09:50:31.156Z,43.73
2018-07-02T09:51:39.226Z,40.92
2018-07-02T09:52:47.306Z,42.18
2018-07-02T09:53:55.358Z,42.86
2018-07-02T09:55:03.459Z,45.86
2018-07-02T09:56:11.527Z,47.21
2018-07-02T09:57:19.598Z,42.59
2018-07-02T09:58:27.674Z,41.14
2018-07-02T09:59:35.771Z,41.52
2018-07-02T10:00:43.845Z,42.96
2018-07-02T10:01:51.868Z,43.44
2018-07-02T10:02:59.984Z,43.92
2018-07-02T10:04:08.042Z,44.04
2018-07-02T10:05:16.128Z,42.59
2018-07-02T10:06:24.274Z,41.04
2018-07-02T10:07:32.245Z,41.62
2018-07-02T10:08:40.345Z,41.62
2018-07-02T10:09:48.423Z,41.33
2018-07-02T10:10:56.486Z,45.40
2018-07-02T10:12:04.582Z,40.19
2018-07-02T10:13:12.652Z,40.17
2018-07-02T10:14:20.764Z,41.14
2018-07-02T10:15:28.813Z,41.91
2018-07-02T10:16:36.872Z,41.72
2018-07-02T10:17:44.941Z,40.17
2018-07-02T10:18:53.018Z,39.88
2018-07-02T10:20:01.081Z,41.31
2018-07-02T10:21:09.166Z,41.70
2018-07-02T10:22:17.237Z,42.57
2018-07-02T10:23:25.345Z,41.99
2018-07-02T10:24:33.385Z,43.92
2018-07-02T10:25:41.458Z,45.57
2018-07-02T10:26:49.535Z,43.75
2018-07-02T10:27:57.597Z,45.20
2018-07-02T10:29:05.688Z,46.29
2018-07-02T10:30:13.769Z,43.19
2018-07-02T10:31:21.951Z,41.56
2018-07-02T10:32:29.917Z,40.99
2018-07-02T10:33:37.978Z,41.37
2018-07-02T10:34:46.107Z,40.01
2018-07-02T10:35:54.132Z,43.21
2018-07-02T10:37:02.198Z,42.92
2018-07-02T10:38:10.273Z,39.14
2018-07-02T10:39:18.349Z,39.61
2018-07-02T10:40:26.443Z,39.49
2018-07-02T10:41:34.493Z,41.82
2018-07-02T10:42:42.565Z,41.72
2018-07-02T10:43:50.638Z,40.36
2018-07-02T10:44:58.722Z,38.45
2018-07-02T10:46:06.782Z,42.71
2018-07-02T10:47:14.879Z,44.64
2018-07-02T10:48:22.945Z,45.03
2018-07-02T10:49:31.023Z,42.63
2018-07-02T10:50:39.086Z,43.41
2018-07-02T10:51:47.154Z,44.76
2018-07-02T10:52:55.237Z,45.56
2018-07-02T10:54:03.319Z,44.01
2018-07-02T10:55:11.396Z,42.09
2018-07-02T10:56:19.454Z,43.35
2018-07-02T10:57:27.541Z,45.10
2018-07-02T10:58:35.600Z,43.76
2018-07-02T10:59:43.669Z,36.87
2018-07-02T11:00:51.737Z,37.07
2018-07-02T11:01:59.821Z,37.55
2018-07-02T11:03:07.904Z,37.32
2018-07-02T11:04:15.975Z,37.90
2018-07-02T11:05:24.038Z,39.61
2018-07-02T11:06:32.091Z,39.32
2018-07-02T11:07:40.187Z,39.70
2018-07-02T11:08:48.298Z,39.41
2018-07-02T11:09:56.343Z,40.67
2018-07-02T11:11:04.506Z,41.25
2018-07-02T11:12:12.467Z,41.16
2018-07-02T11:13:20.574Z,41.86
2018-07-02T11:14:28.619Z,40.59
2018-07-02T11:15:36.708Z,44.27
2018-07-02T11:16:44.783Z,43.99
2018-07-02T11:17:52.861Z,45.95
2018-07-02T11:19:00.930Z,44.68
2018-07-02T11:20:09.003Z,45.20
2018-07-02T11:21:17.078Z,42.19
2018-07-02T11:22:25.167Z,40.08
2018-07-02T11:23:33.281Z,41.24
2018-07-02T11:24:41.298Z,41.92
2018-07-02T11:25:49.373Z,39.98
2018-07-02T11:26:57.452Z,39.11
2018-07-02T11:28:05.530Z,39.59
2018-07-02T11:29:13.604Z,42.60
2018-07-02T11:30:21.652Z,41.43
2018-07-02T11:31:29.732Z,42.03
2018-07-02T11:32:37.801Z,42.71
2018-07-02T11:33:45.884Z,43.40
2018-07-02T11:34:53.958Z,41.06
2018-07-02T11:36:02.015Z,43.02
2018-07-02T11:37:10.134Z,41.67
2018-07-02T11:38:18.181Z,41.67
2018-07-02T11:39:26.255Z,38.65
2018-07-02T11:40:34.323Z,40.41
2018-07-02T11:41:42.400Z,39.92
2018-07-02T11:42:50.484Z,41.96
2018-07-02T11:43:58.558Z,43.34
2018-07-02T11:45:06.635Z,43.15
2018-07-02T11:46:14.707Z,41.98
2018-07-02T11:47:22.795Z,38.48
2018-07-02T11:48:30.835Z,36.83
2018-07-02T11:49:38.934Z,39.62
2018-07-02T11:50:46.996Z,41.38
2018-07-02T11:51:55.080Z,41.77
2018-07-02T11:53:03.155Z,40.79
2018-07-02T11:54:11.220Z,42.15
2018-07-02T11:55:19.291Z,42.74
2018-07-02T11:56:27.377Z,41.78
2018-07-02T11:57:35.446Z,41.20
2018-07-02T11:58:43.525Z,37.60
2018-07-02T11:59:51.566Z,36.93
2018-07-02T12:00:59.676Z,37.90
2018-07-02T12:02:07.749Z,40.33
2018-07-02T12:03:15.876Z,41.10
2018-07-02T12:04:23.903Z,42.66
2018-07-02T12:05:31.936Z,42.76
2018-07-02T12:06:40.045Z,39.84
2018-07-02T12:07:48.106Z,37.70
2018-07-02T12:08:56.193Z,38.57
2018-07-02T12:10:04.255Z,40.33
2018-07-02T12:11:12.320Z,42.08
2018-07-02T12:12:20.419Z,37.99
2018-07-02T12:13:28.493Z,39.06
2018-07-02T12:14:36.570Z,42.08
2018-07-02T12:15:44.645Z,43.92
2018-07-02T12:16:52.709Z,42.18
2018-07-02T12:18:00.782Z,40.13
2018-07-02T12:19:08.863Z,40.23
2018-07-02T12:20:16.948Z,41.88
2018-07-02T12:21:24.994Z,41.80
2018-07-02T12:22:33.066Z,42.29
2018-07-02T12:23:41.138Z,40.44
2018-07-02T12:24:49.227Z,42.78
2018-07-02T12:25:57.303Z,38.21
2018-07-02T12:27:05.374Z,36.94
2018-07-02T12:28:13.454Z,37.98
2018-07-02T12:29:21.523Z,43.12
2018-07-02T12:30:29.597Z,43.41
2018-07-02T12:31:37.714Z,44.97
2018-07-02T12:32:45.744Z,43.22
2018-07-02T12:33:53.818Z,39.84
2018-07-02T12:35:01.872Z,39.55
2018-07-02T12:36:09.984Z,40.13
2018-07-02T12:37:18.042Z,40.03
2018-07-02T12:38:26.119Z,41.88
2018-07-02T12:39:34.196Z,43.73
2018-07-02T12:40:42.256Z,40.42
2018-07-02T12:41:50.338Z,42.19
2018-07-02T12:42:58.415Z,42.36
2018-07-02T12:44:06.490Z,40.93
2018-07-02T12:45:14.564Z,36.75
2018-07-02T12:46:22.669Z,38.57
2018-07-02T12:47:30.716Z,43.44
2018-07-02T12:48:38.768Z,42.85
2018-07-02T12:49:46.871Z,39.75
2018-07-02T12:50:54.916Z,41.49
2018-07-02T12:52:03.015Z,40.33
2018-07-02T12:53:11.083Z,41.49
2018-07-02T12:54:19.328Z,43.34
2018-07-02T12:55:27.226Z,38.98
2018-07-02T12:56:35.297Z,39.18
2018-07-02T12:57:43.418Z,40.73
2018-07-02T12:58:51.455Z,39.18
2018-07-02T12:59:59.539Z,37.14
2018-07-02T13:01:07.607Z,41.80
2018-07-02T13:02:15.735Z,41.61
2018-07-02T13:03:23.759Z,37.92
2018-07-02T13:04:31.831Z,38.60
2018-07-02T13:05:39.893Z,40.34
2018-07-02T13:06:47.973Z,40.44
2018-07-02T13:07:56.047Z,41.71
2018-07-02T13:09:04.124Z,38.79
2018-07-02T13:10:12.161Z,40.06
2018-07-02T13:11:20.269Z,40.44
2018-07-02T13:12:28.341Z,39.76
2018-07-02T13:13:36.449Z,37.24
2018-07-02T13:14:44.494Z,39.28
2018-07-02T13:15:52.554Z,39.86
2018-07-02T13:17:00.644Z,39.96
2018-07-02T13:18:08.703Z,37.34
2018-07-02T13:19:16.796Z,36.55
2018-07-02T13:20:24.866Z,37.43
2018-07-02T13:21:32.940Z,41.22
2018-07-02T13:22:40.992Z,40.15
2018-07-02T13:23:49.083Z,39.96
2018-07-02T13:24:57.159Z,41.90
2018-07-02T13:26:05.240Z,43.07
2018-07-02T13:27:13.304Z,43.55
2018-07-02T13:28:21.383Z,40.25
2018-07-02T13:29:29.454Z,40.54
2018-07-02T13:30:37.533Z,38.70
2018-07-02T13:31:45.598Z,36.85
2018-07-02T13:32:53.675Z,38.89
2018-07-02T13:34:01.754Z,41.39
2018-07-02T13:35:09.844Z,38.89
2018-07-02T13:36:17.923Z,40.34
2018-07-02T13:37:25.979Z,36.93
2018-07-02T13:38:34.050Z,39.75
2018-07-02T13:39:42.090Z,39.65
2018-07-02T13:40:50.189Z,40.81
2018-07-02T13:41:58.273Z,38.39
2018-07-02T13:43:06.348Z,42.56
2018-07-02T13:44:14.419Z,42.08
2018-07-02T13:45:22.470Z,40.25
2018-07-02T13:46:30.568Z,41.39
2018-07-02T13:47:38.650Z,40.03
2018-07-02T13:48:46.740Z,41.32
2018-07-02T13:49:54.802Z,41.51
2018-07-02T13:51:02.860Z,41.51
2018-07-02T13:52:10.943Z,39.76
2018-07-02T13:53:19.016Z,41.42
2018-07-02T13:54:27.091Z,38.11
2018-07-02T13:55:35.155Z,37.92
2018-07-02T13:56:43.238Z,41.71
2018-07-02T13:57:51.305Z,42.19
2018-07-02T13:58:59.383Z,38.89
2018-07-02T14:00:07.496Z,37.70
2018-07-02T14:01:15.539Z,39.94
2018-07-02T14:02:23.628Z,41.39
2018-07-02T14:03:31.667Z,40.03
2018-07-02T14:04:39.766Z,40.33
2018-07-02T14:05:47.863Z,37.24
2018-07-02T14:06:55.904Z,37.80
2018-07-02T14:08:04.001Z,38.57
2018-07-02T14:09:12.039Z,36.93
2018-07-02T14:10:20.114Z,38.48
2018-07-02T14:11:28.194Z,39.75
2018-07-02T14:12:36.282Z,40.62
2018-07-02T14:13:44.387Z,36.93
2018-07-02T14:14:52.392Z,37.12
2018-07-02T14:16:00.494Z,37.68
2018-07-02T14:17:08.579Z,39.72
2018-07-02T14:18:16.635Z,36.71
2018-07-02T14:19:24.730Z,36.71
2018-07-02T14:20:32.781Z,37.68
2018-07-02T14:21:40.865Z,38.17
2018-07-02T14:22:48.943Z,39.72
2018-07-02T14:23:57.012Z,43.02
2018-07-02T14:25:05.090Z,39.92
2018-07-02T14:26:13.161Z,38.95
2018-07-02T14:27:21.298Z,40.69
2018-07-02T14:28:29.305Z,39.06
2018-07-02T14:29:37.377Z,39.14
2018-07-02T14:30:45.471Z,40.62
2018-07-02T14:31:53.534Z,41.30
2018-07-02T14:33:01.730Z,41.39
2018-07-02T14:34:09.684Z,39.06
2018-07-02T14:35:17.770Z,38.77
2018-07-02T14:36:25.835Z,38.48
2018-07-02T14:37:33.905Z,38.67
2018-07-02T14:38:41.952Z,38.67